Terminal Aerodrome Forecast
Issued by NWS Spokane, WA

Home | Current Version | Previous Version | Text Only | Print | Product List | Glossary On
Versions: 1 2 3 4 5 6 7 8 9 10 11 12 13 14 15 16 17 18
000
FTUS46 KOTX 210520
TAFGEG
TAF
KGEG 210520Z 2106/2206 21013KT P6SM FEW060
     FM211100 19012KT P6SM BKN010 BKN200
     FM211600 17011KT 6SM -RASN OVC025
     FM212000 16014KT P6SM -RA OVC035
     FM220200 21015G22KT 5SM -RA BR OVC020=

USA.gov is the U.S. government's official web portal to all federal, state and local government web resources and services.